Airfield :
LOGIN :

Register | Disclaimer

   EN    FR    IT 

 










Legend :    VFR   Marginal VFR   IFR   Intensive IFR   Very Intensive IFR
Visi :
Ceiling :
>= 8 km
>= 3000ft
5 to 8 km
1000 to 3000 ft
1500m to 5 km
500 to 1000 ft
800 to 1500m
200 to 500 ft
< 800m
< 200 ft
Symbols :   Thunderstorms  Fog  Heavy snow  Heavy precipitations  Wind > 20 kt
SIGMETs :     Misc.  Thunderstorms  Icing  Turbulence  Mountain Waves  Volcanic Ashes







- Airport Elevation : 24 ft
- IATA code : SGD


EKSB - Sonderborg

CURRENT METAR :
  • 251150Z 30010KT 9999 SCT025 BKN050 11/06 Q1004

EXPIRED METARs :
  • 251120Z 31010KT 270V330 9999 SCT025 BKN060 10/06 Q1004
  • 251050Z 32013KT 9999 SCT018 BKN060 10/07 Q1003
  • 251020Z 32015KT 9999 SCT012 BKN055 09/07 Q1003
  • 250950Z 35013KT 9999 SCT008 BKN050 09/07 Q1002
  • 250920Z 35013KT 9999 SCT008 BKN050 09/07 Q1001

TAF TAF EKSB
Valid from the 25 at 09:00 until the 25 at 18:00 UTC


250854Z 2509/2518 36012KT 9999 BKN020
TEMPO 2509/2510 BKN006
BECMG 2510/2512 28012KT
TEMPO 2510/2511 BKN012
TEMPO 2513/2517 SHRA SCT020CB
No reported NOTAMs for that airfield.



MET'MAP, your aeronautical weather chart ! - Copyright ORBIFLY December 2007 - Disclaimer

ORBIFLY MET'MAP TEAM :

Programming & Development : Alexandra Zaïnal
Concept & Development : Baudouin d'Aumeries
Co-Development & Prog : Marc-Olivier Méhu
Technical & hardware support : Manuel Goepfert

Contact : metmap@orbifly.com




SOURCES & CREDITS :

   NOAA